Time;durP1;ratioP1;P1;durP2;ratioP2;P2;SDS_P1;SDS_P2;PMS_P1;PMS_P2;Temp;Humidity;BMP_temperature;BMP_pressure;BME280_temperature;BME280_humidity;BME280_pressure;Samples;Min_cycle;Max_cycle;Signal;HPM_P1;HPM_P2
2022/02/23 00:01:36;;;;;;;11.63;4.28;;;;;;;-146.41;100.00;57768.22;4969741;28;20137;-68
2022/02/23 00:04:04;;;;;;;10.48;4.72;;;;;;;-146.41;100.00;57768.22;4985278;28;20050;-69
2022/02/23 00:06:31;;;;;;;16.30;5.28;;;8.10;99.90;;;-146.41;100.00;57768.22;4979950;28;20177;-69
2022/02/23 00:08:58;;;;;;;11.10;3.75;;;8.10;99.90;;;-146.41;100.00;57768.22;4981005;28;20479;-69
2022/02/23 00:11:25;;;;;;;7.78;2.00;;;8.00;99.90;;;-146.41;100.00;57768.22;4982429;28;20081;-69
2022/02/23 00:13:52;;;;;;;7.55;1.45;;;7.80;99.90;;;-146.41;100.00;57768.22;4981319;28;20514;-69
2022/02/23 00:16:19;;;;;;;4.47;1.42;;;7.70;99.90;;;-146.41;100.00;57768.22;4982667;28;20074;-69
2022/02/23 00:18:47;;;;;;;5.82;0.80;;;7.50;99.90;;;-146.41;100.00;57768.22;4979141;28;20620;-69
2022/02/23 00:21:15;;;;;;;3.67;1.05;;;7.40;99.90;;;-146.41;100.00;57768.22;4983534;28;20047;-68
2022/02/23 00:23:43;;;;;;;6.28;1.00;;;7.30;99.90;;;-146.41;100.00;57768.22;4977425;28;20114;-68
2022/02/23 00:26:12;;;;;;;3.67;0.70;;;7.30;99.90;;;-146.41;100.00;57768.22;4985413;28;20502;-68
2022/02/23 00:28:39;;;;;;;4.78;0.60;;;7.30;99.90;;;-146.41;100.00;57768.22;4981140;28;20054;-69
2022/02/23 00:31:06;;;;;;;3.03;0.60;;;7.20;99.90;;;-146.41;100.00;57768.22;4987281;28;20196;-69
2022/02/23 00:33:33;;;;;;;4.03;0.75;;;7.10;99.90;;;-146.41;100.00;57768.22;4981894;28;20069;-69
2022/02/23 00:36:00;;;;;;;3.78;0.50;;;7.00;99.90;;;-146.41;100.00;57768.22;4971045;28;20138;-69
2022/02/23 00:38:27;;;;;;;3.90;0.68;;;6.90;99.90;;;-146.41;100.00;57768.22;4980410;28;20060;-69
2022/02/23 00:40:54;;;;;;;3.00;0.50;;;6.80;99.90;;;-146.41;100.00;57768.22;4982018;28;20082;-69
2022/02/23 00:43:21;;;;;;;8.48;0.73;;;6.80;99.90;;;-146.41;100.00;57768.22;4983530;28;20142;-68
2022/02/23 00:45:49;;;;;;;4.13;0.73;;;6.70;99.90;;;-146.41;100.00;57768.22;4980467;28;20502;-69
2022/02/23 00:48:15;;;;;;;3.58;0.60;;;6.60;99.90;;;-146.41;100.00;57768.22;4974730;28;20169;-68
2022/02/23 00:50:42;;;;;;;7.25;0.70;;;6.50;99.90;;;-146.41;100.00;57768.22;4981274;28;20137;-69
2022/02/23 00:53:09;;;;;;;7.40;0.90;;;6.50;99.90;;;-146.41;100.00;57768.22;4978210;28;20126;-68
2022/02/23 00:55:36;;;;;;;4.40;0.50;;;6.50;99.90;;;-146.41;100.00;57768.22;4984542;28;20133;-68
2022/02/23 00:58:03;;;;;;;4.30;0.63;;;6.40;99.90;;;-146.41;100.00;57768.22;4983774;28;20125;-69
2022/02/23 01:00:30;;;;;;;3.78;0.70;;;6.30;99.90;;;-146.41;100.00;57768.22;4981671;28;20538;-68
2022/02/23 01:02:57;;;;;;;4.28;0.50;;;6.30;99.90;;;-146.41;100.00;57768.22;4979187;28;20566;-68
2022/02/23 01:05:24;;;;;;;4.95;0.75;;;6.20;99.90;;;-146.41;100.00;57768.22;4968493;28;20567;-68
2022/02/23 01:07:54;;;;;;;4.28;0.63;;;6.20;99.90;;;-146.41;100.00;57768.22;4965125;28;20141;-68
2022/02/23 01:10:21;;;;;;;5.28;1.02;;;6.20;99.90;;;-146.41;100.00;57768.22;4981124;28;20078;-68
2022/02/23 01:12:48;;;;;;;2.60;0.50;;;6.20;99.90;;;-146.41;100.00;57768.22;4975254;28;20508;-68
2022/02/23 01:15:15;;;;;;;3.70;0.43;;;6.20;99.90;;;-146.41;100.00;57768.22;4978644;28;20081;-68
2022/02/23 01:17:42;;;;;;;3.50;0.55;;;6.20;99.90;;;-146.41;100.00;57768.22;4979255;28;20073;-68
2022/02/23 01:20:10;;;;;;;5.93;0.70;;;6.20;99.90;;;-146.41;100.00;57768.22;4977714;28;20080;-69
2022/02/23 01:22:37;;;;;;;4.85;0.70;;;6.30;99.90;;;-146.41;100.00;57768.22;4978668;28;20047;-68
2022/02/23 01:25:06;;;;;;;6.63;0.55;;;6.30;99.90;;;-146.41;100.00;57768.22;4971317;28;20125;-68
2022/02/23 01:27:33;;;;;;;3.58;0.50;;;6.30;99.90;;;-146.41;100.00;57768.22;4981379;28;20157;-68
2022/02/23 01:30:03;;;;;;;4.97;0.85;;;6.40;99.90;;;-146.41;100.00;57768.22;4980983;28;20396;-68
2022/02/23 01:32:30;;;;;;;6.00;0.52;;;6.50;99.90;;;-146.41;100.00;57768.22;4980566;28;20055;-69
2022/02/23 01:34:57;;;;;;;6.25;0.60;;;6.50;99.90;;;-146.41;100.00;57768.22;4973218;28;20109;-68
2022/02/23 01:37:24;;;;;;;6.72;0.63;;;6.50;99.90;;;-146.41;100.00;57768.22;4980812;28;20077;-68
2022/02/23 01:39:51;;;;;;;9.20;0.80;;;6.50;99.90;;;-146.41;100.00;57768.22;4981849;28;20447;-69
2022/02/23 01:42:18;;;;;;;10.30;1.00;;;6.50;99.90;;;-146.41;100.00;57768.22;4980989;28;20070;-69
2022/02/23 01:44:45;;;;;;;4.80;0.60;;;6.50;99.90;;;-146.41;100.00;57768.22;4977641;28;20279;-69
2022/02/23 01:47:12;;;;;;;5.60;0.77;;;6.50;99.90;;;-146.41;100.00;57768.22;4981114;28;20458;-68
2022/02/23 01:49:40;;;;;;;9.32;0.70;;;6.60;99.90;;;-146.41;100.00;57768.22;4978928;28;20068;-69
2022/02/23 01:52:09;;;;;;;5.82;0.70;;;6.60;99.90;;;-146.41;100.00;57768.22;4980051;28;20042;-68
2022/02/23 01:54:37;;;;;;;8.07;1.17;;;6.60;99.90;;;-146.41;100.00;57768.22;4976478;28;20133;-68
2022/02/23 01:57:04;;;;;;;8.98;1.08;;;6.70;99.90;;;-146.41;100.00;57768.22;4981163;28;20405;-68
2022/02/23 01:59:32;;;;;;;5.03;0.68;;;6.70;99.90;;;-146.41;100.00;57768.22;4968213;28;20141;-68
2022/02/23 02:02:00;;;;;;;6.50;0.70;;;6.70;99.90;;;-146.41;100.00;57768.22;4978085;28;20043;-68
2022/02/23 02:04:27;;;;;;;4.80;0.70;;;6.60;99.90;;;-146.41;100.00;57768.22;4976143;28;20054;-69
2022/02/23 02:06:54;;;;;;;6.32;0.80;;;6.70;99.90;;;-146.41;100.00;57768.22;4977692;28;20086;-68
2022/02/23 02:09:21;;;;;;;8.90;0.80;;;6.60;99.90;;;-146.41;100.00;57768.22;4979173;28;20508;-68
2022/02/23 02:11:48;;;;;;;7.97;0.70;;;6.50;99.90;;;-146.41;100.00;57768.22;4980612;28;20150;-68
2022/02/23 02:14:15;;;;;;;4.85;0.70;;;6.40;99.90;;;-146.41;100.00;57768.22;4976911;28;20085;-68
2022/02/23 02:16:42;;;;;;;6.38;0.88;;;6.30;99.90;;;-146.41;100.00;57768.22;4978142;28;20137;-68
2022/02/23 02:19:09;;;;;;;6.47;0.73;;;6.20;99.90;;;-146.41;100.00;57768.22;4970779;28;20566;-68
2022/02/23 02:21:53;;;;;;;6.00;0.80;;;6.30;99.90;;;-146.41;100.00;57768.22;4978825;28;20078;-68
2022/02/23 02:24:26;;;;;;;5.28;0.80;;;6.20;99.90;;;-146.41;100.00;57768.22;4977581;28;20077;-68
2022/02/23 02:26:54;;;;;;;;;;;6.30;99.90;;;-146.41;100.00;57768.22;4975410;28;20053;-68
2022/02/23 02:29:22;;;;;;;8.25;1.00;;;6.20;99.90;;;-146.41;100.00;57768.22;4978610;28;20406;-68
2022/02/23 02:31:49;;;;;;;11.82;1.08;;;6.20;99.90;;;-146.41;100.00;57768.22;4978396;28;20078;-68
2022/02/23 02:34:19;;;;;;;4.93;0.63;;;6.20;99.90;;;-146.41;100.00;57768.22;4978763;28;20057;-68
2022/02/23 02:36:48;;;;;;;7.95;1.35;;;6.20;99.90;;;-146.41;100.00;57768.22;4979007;28;20137;-68
2022/02/23 02:39:17;;;;;;;8.13;0.90;;;6.20;99.90;;;-146.41;100.00;57768.22;4976481;28;20541;-69
2022/02/23 02:41:45;;;;;;;8.80;0.90;;;6.10;99.90;;;-146.41;100.00;57768.22;4977836;28;20220;-68
2022/02/23 02:44:13;;;;;;;7.03;1.00;;;5.90;99.90;;;-146.41;100.00;57768.22;4977466;28;20060;-68
2022/02/23 02:46:40;;;;;;;7.40;0.98;;;5.80;99.90;;;-146.41;100.00;57768.22;4980918;28;20053;-69
2022/02/23 02:49:08;;;;;;;11.05;1.00;;;5.60;99.90;;;-146.41;100.00;57768.22;4978218;28;20050;-68
2022/02/23 02:51:36;;;;;;;8.52;0.90;;;5.50;99.90;;;-146.41;100.00;57768.22;4975483;28;20150;-69
2022/02/23 02:54:05;;;;;;;7.78;1.20;;;5.40;99.90;;;-146.41;100.00;57768.22;4976191;28;20085;-68
2022/02/23 02:56:34;;;;;;;8.85;1.00;;;5.30;99.90;;;-146.41;100.00;57768.22;4966062;28;21471;-68
2022/02/23 02:59:02;;;;;;;2.70;0.82;;;5.20;99.90;;;-146.41;100.00;57768.22;4959841;28;20192;-68
2022/02/23 03:01:30;;;;;;;9.23;1.33;;;5.10;99.90;;;-146.41;100.00;57768.22;4968567;28;20118;-68
2022/02/23 03:03:58;;;;;;;2.40;0.70;;;5.00;99.90;;;-146.41;100.00;57768.22;4976767;28;20522;-68
2022/02/23 03:06:27;;;;;;;5.80;0.90;;;5.00;99.90;;;-146.41;100.00;57768.22;4985672;28;20068;-68
2022/02/23 03:08:55;;;;;;;3.28;0.95;;;5.00;99.90;;;-146.41;100.00;57768.22;4983510;28;20140;-68
2022/02/23 03:11:24;;;;;;;9.10;0.90;;;5.00;99.90;;;-146.41;100.00;57768.22;4963805;28;20133;-69
2022/02/23 03:13:52;;;;;;;7.88;1.00;;;5.00;99.90;;;-146.41;100.00;57768.22;4977639;28;20133;-68
2022/02/23 03:16:19;;;;;;;6.22;1.05;;;5.00;99.90;;;-146.41;100.00;57768.22;4966432;28;20090;-68
2022/02/23 03:18:46;;;;;;;7.93;1.38;;;5.00;99.90;;;-146.41;100.00;57768.22;4982647;28;20137;-68
2022/02/23 03:21:14;;;;;;;9.73;2.00;;;5.00;99.90;;;-146.41;100.00;57768.22;4981837;28;20435;-68
2022/02/23 03:23:41;;;;;;;8.77;1.60;;;4.90;99.90;;;-146.41;100.00;57768.22;4983181;28;20073;-68
2022/02/23 03:26:12;;;;;;;8.70;1.75;;;4.90;99.90;;;-146.41;100.00;57768.22;4981548;28;20074;-68
2022/02/23 03:28:41;;;;;;;9.32;2.30;;;4.80;99.90;;;-146.41;100.00;57768.22;4980270;28;20085;-68
2022/02/23 03:31:09;;;;;;;20.33;3.63;;;4.70;99.90;;;-146.41;100.00;57768.22;4981473;28;20202;-69
2022/02/23 03:33:42;;;;;;;12.55;3.42;;;4.70;99.90;;;-146.41;100.00;57768.22;4985585;28;20499;-68
2022/02/23 03:36:15;;;;;;;;;;;4.70;99.90;;;-146.41;100.00;57768.22;4982773;28;20415;-68
2022/02/23 03:38:44;;;;;;;11.60;3.22;;;4.70;99.90;;;-146.41;100.00;57768.22;4978751;28;20028;-68
2022/02/23 03:41:12;;;;;;;14.75;4.25;;;4.60;99.90;;;-146.41;100.00;57768.22;4977661;28;20054;-68
2022/02/23 03:43:40;;;;;;;18.85;5.65;;;4.60;99.90;;;-146.41;100.00;57768.22;4977808;28;20121;-68
2022/02/23 03:46:07;;;;;;;16.95;4.85;;;4.60;99.90;;;-146.41;100.00;57768.22;4985490;28;20046;-68
2022/02/23 03:48:38;;;;;;;14.80;4.68;;;4.50;99.90;;;-146.41;100.00;57768.22;4977627;28;20077;-68
2022/02/23 03:51:06;;;;;;;17.42;4.78;;;4.50;99.90;;;-146.41;100.00;57768.22;4981811;28;20101;-68
2022/02/23 03:53:34;;;;;;;11.63;4.20;;;4.40;99.90;;;-146.41;100.00;57768.22;4976214;28;20054;-68
2022/02/23 03:56:02;;;;;;;8.07;2.15;;;4.30;99.90;;;-146.41;100.00;57768.22;4979774;28;20129;-68
2022/02/23 03:58:29;;;;;;;8.02;1.70;;;4.30;99.90;;;-146.41;100.00;57768.22;4985385;28;20089;-68
2022/02/23 04:00:56;;;;;;;5.90;1.42;;;4.30;99.90;;;-146.41;100.00;57768.22;4979431;28;20077;-68
2022/02/23 04:03:23;;;;;;;7.65;1.42;;;4.20;99.90;;;-146.41;100.00;57768.22;4978098;28;20106;-68
2022/02/23 04:05:50;;;;;;;8.13;1.60;;;4.20;99.90;;;-146.41;100.00;57768.22;4982675;28;20225;-68
2022/02/23 04:08:17;;;;;;;9.30;1.30;;;4.30;99.90;;;-146.41;100.00;57768.22;4980871;28;20431;-68
2022/02/23 04:10:44;;;;;;;12.98;2.60;;;4.30;99.90;;;-146.41;100.00;57768.22;4981699;28;20141;-68
2022/02/23 04:13:11;;;;;;;12.73;2.58;;;4.30;99.90;;;-146.41;100.00;57768.22;4981069;28;20204;-68
2022/02/23 04:15:38;;;;;;;12.57;3.08;;;4.40;99.90;;;-146.41;100.00;57768.22;4982158;28;20042;-68
2022/02/23 04:18:06;;;;;;;14.77;5.88;;;4.30;99.90;;;-146.41;100.00;57768.22;4981988;28;20070;-68
2022/02/23 04:20:32;;;;;;;10.63;3.88;;;4.20;99.90;;;-146.41;100.00;57768.22;4981475;28;20081;-68
2022/02/23 04:22:59;;;;;;;10.07;3.40;;;4.10;99.90;;;-146.41;100.00;57768.22;4979607;28;20137;-68
2022/02/23 04:25:26;;;;;;;8.93;2.70;;;4.00;99.90;;;-146.41;100.00;57768.22;4984617;28;20072;-68
2022/02/23 04:27:53;;;;;;;8.60;2.50;;;3.90;99.90;;;-146.41;100.00;57768.22;4978612;28;20133;-68
2022/02/23 04:30:21;;;;;;;8.10;1.77;;;3.90;99.90;;;-146.41;100.00;57768.22;4980477;28;20070;-68
2022/02/23 04:32:49;;;;;;;7.20;2.78;;;3.90;99.90;;;-146.41;100.00;57768.22;4978793;28;20042;-68
2022/02/23 04:35:17;;;;;;;12.13;3.58;;;3.80;99.90;;;-146.41;100.00;57768.22;4981463;28;20133;-68
2022/02/23 04:37:44;;;;;;;13.77;4.35;;;3.80;99.90;;;-146.41;100.00;57768.22;4978658;28;20531;-68
2022/02/23 04:40:11;;;;;;;12.65;3.45;;;3.80;99.90;;;-146.41;100.00;57768.22;4979478;28;20050;-69
2022/02/23 04:42:38;;;;;;;14.13;6.72;;;3.70;99.90;;;-146.41;100.00;57768.22;4974376;28;20551;-68
2022/02/23 04:45:05;;;;;;;21.83;9.43;;;3.60;99.90;;;-146.41;100.00;57768.22;4980693;28;20626;-68
2022/02/23 04:47:32;;;;;;;27.95;13.85;;;3.50;99.90;;;-146.41;100.00;57768.22;4976882;28;20169;-68
2022/02/23 04:50:03;;;;;;;25.90;11.10;;;3.40;99.90;;;-146.41;100.00;57768.22;4976643;28;20073;-68
2022/02/23 04:52:30;;;;;;;17.65;8.55;;;3.30;99.90;;;-146.41;100.00;57768.22;4965819;28;20168;-68
2022/02/23 04:54:57;;;;;;;17.40;7.60;;;3.20;99.90;;;-146.41;100.00;57768.22;4978525;28;20129;-68
2022/02/23 04:57:24;;;;;;;19.05;6.45;;;3.10;99.90;;;-146.41;100.00;57768.22;4980448;28;20141;-68
2022/02/23 04:59:52;;;;;;;29.42;8.85;;;3.10;99.90;;;-146.41;100.00;57768.22;4979162;28;20049;-68
2022/02/23 05:02:19;;;;;;;19.40;7.03;;;3.10;99.90;;;-146.41;100.00;57768.22;4979280;28;20046;-69
2022/02/23 05:04:46;;;;;;;14.45;6.50;;;3.00;99.90;;;-146.41;100.00;57768.22;4980461;28;20569;-68
2022/02/23 05:07:14;;;;;;;15.82;4.13;;;2.90;99.90;;;-146.41;100.00;57768.22;4979938;28;20058;-68
2022/02/23 05:09:42;;;;;;;14.23;3.33;;;3.00;99.90;;;-146.41;100.00;57768.22;4974997;28;20484;-68
2022/02/23 05:12:10;;;;;;;11.43;4.28;;;3.00;99.90;;;-146.41;100.00;57768.22;4978758;28;20043;-68
2022/02/23 05:14:38;;;;;;;9.88;4.88;;;3.00;99.90;;;-146.41;100.00;57768.22;4979390;28;20125;-69
2022/02/23 05:17:05;;;;;;;15.07;4.35;;;3.00;99.90;;;-146.41;100.00;57768.22;4982270;28;20046;-68
2022/02/23 05:19:34;;;;;;;13.07;5.00;;;2.80;99.90;;;-146.41;100.00;57768.22;4980065;28;20385;-68
2022/02/23 05:22:05;;;;;;;12.32;4.90;;;2.80;99.90;;;-146.41;100.00;57768.22;4977930;28;20138;-68
2022/02/23 05:24:33;;;;;;;11.85;5.13;;;2.90;99.90;;;-146.41;100.00;57768.22;4959228;28;20332;-68
2022/02/23 05:27:05;;;;;;;8.32;4.22;;;2.90;99.90;;;-146.41;100.00;57768.22;4979945;28;20427;-68
2022/02/23 05:29:32;;;;;;;11.50;4.72;;;2.80;99.90;;;-146.41;100.00;57768.22;4958130;28;20086;-68
2022/02/23 05:32:00;;;;;;;12.15;4.18;;;2.80;99.90;;;-146.41;100.00;57768.22;4978133;28;20046;-68
2022/02/23 05:34:27;;;;;;;13.82;4.25;;;3.00;99.90;;;-146.41;100.00;57768.22;4980267;28;20042;-68
2022/02/23 05:36:54;;;;;;;13.65;3.72;;;3.10;99.90;;;-146.41;100.00;57768.22;4980246;28;20114;-68
2022/02/23 05:39:22;;;;;;;11.63;3.20;;;3.00;99.90;;;-146.41;100.00;57768.22;4966984;28;20141;-68
2022/02/23 05:41:49;;;;;;;16.83;4.35;;;3.00;99.90;;;-146.41;100.00;57768.22;4980890;28;20126;-68
2022/02/23 05:44:17;;;;;;;9.95;4.07;;;2.90;99.90;;;-146.41;100.00;57768.22;4978730;28;20513;-68
2022/02/23 05:46:46;;;;;;;14.73;4.90;;;2.80;99.90;;;-146.41;100.00;57768.22;4980258;28;20126;-68
2022/02/23 05:49:13;;;;;;;14.10;4.30;;;2.90;99.90;;;-146.41;100.00;57768.22;4980089;28;20125;-68
2022/02/23 05:51:41;;;;;;;14.85;6.07;;;2.80;99.90;;;-146.41;100.00;57768.22;4966792;28;20171;-68
2022/02/23 05:54:11;;;;;;;12.05;4.50;;;2.80;99.90;;;-146.41;100.00;57768.22;4965244;28;20146;-67
2022/02/23 05:56:38;;;;;;;10.13;3.47;;;2.80;99.90;;;-146.41;100.00;57768.22;4981710;28;20112;-68
2022/02/23 05:59:05;;;;;;;9.57;3.42;;;2.80;99.90;;;-146.41;100.00;57768.22;4980141;28;20043;-68
2022/02/23 06:01:33;;;;;;;15.55;4.10;;;2.70;99.90;;;-146.41;100.00;57768.22;4981336;28;20062;-69
2022/02/23 06:04:01;;;;;;;8.32;2.97;;;2.50;99.90;;;-146.41;100.00;57768.22;4980212;28;20146;-68
2022/02/23 06:06:29;;;;;;;8.95;3.13;;;2.50;99.90;;;-146.41;100.00;57768.22;4966112;28;20074;-68
2022/02/23 06:08:56;;;;;;;11.77;4.00;;;2.50;99.90;;;-146.41;100.00;57768.22;4983021;28;20225;-68
2022/02/23 06:11:25;;;;;;;13.30;4.05;;;2.50;99.90;;;-146.41;100.00;57768.22;4980139;28;20089;-68
2022/02/23 06:13:53;;;;;;;13.18;3.60;;;2.50;99.90;;;-146.41;100.00;57768.22;4969026;28;20363;-68
2022/02/23 06:16:25;;;;;;;9.80;3.42;;;2.40;99.90;;;-146.41;100.00;57768.22;4962426;28;20081;-68
2022/02/23 06:18:54;;;;;;;15.45;5.22;;;2.40;99.90;;;-146.41;100.00;57768.22;4981130;28;20045;-68
2022/02/23 06:21:25;;;;;;;14.77;5.18;;;2.30;99.90;;;-146.41;100.00;57768.22;4966321;28;20096;-68
2022/02/23 06:23:53;;;;;;;11.45;4.20;;;2.30;99.90;;;-146.41;100.00;57768.22;4975491;28;20562;-69
2022/02/23 06:26:21;;;;;;;17.38;5.60;;;2.20;99.90;;;-146.41;100.00;57768.22;4979568;28;20097;-68
2022/02/23 06:28:49;;;;;;;14.05;5.32;;;2.20;99.90;;;-146.41;100.00;57768.22;4975781;28;20241;-68
2022/02/23 06:31:17;;;;;;;11.93;4.40;;;2.20;99.90;;;-146.41;100.00;57768.22;4959633;28;20576;-68
2022/02/23 06:33:46;;;;;;;21.38;6.22;;;2.20;99.90;;;-146.41;100.00;57768.22;4974603;28;20562;-72
2022/02/23 06:36:15;;;;;;;8.25;3.95;;;2.20;99.90;;;-146.41;100.00;57768.22;4979936;28;20165;-69
2022/02/23 06:38:42;;;;;;;14.57;5.53;;;2.20;99.90;;;-146.41;100.00;57768.22;4967064;28;20096;-68
2022/02/23 06:41:24;;;;;;;13.85;4.82;;;2.20;99.90;;;-146.41;100.00;57768.22;4981164;28;20105;-68
2022/02/23 06:43:53;;;;;;;18.58;6.47;;;2.20;99.90;;;-146.41;100.00;57768.22;4966370;28;20134;-68
2022/02/23 06:46:21;;;;;;;14.10;6.00;;;2.10;99.90;;;-146.41;100.00;57768.22;4983465;28;20050;-68
2022/02/23 06:48:49;;;;;;;17.70;7.70;;;2.10;99.90;;;-146.41;100.00;57768.22;4967610;28;20523;-68
2022/02/23 06:51:20;;;;;;;17.08;8.00;;;2.10;99.90;;;-146.41;100.00;57768.22;4984063;28;20056;-69
2022/02/23 06:53:49;;;;;;;63.20;10.98;;;2.00;99.90;;;-146.41;100.00;57768.22;4969952;28;20054;-68
2022/02/23 06:56:17;;;;;;;143.32;13.98;;;1.90;99.90;;;-146.41;100.00;57768.22;4984990;28;20042;-68
2022/02/23 06:58:50;;;;;;;127.75;12.00;;;1.90;99.90;;;-146.41;100.00;57768.22;4970144;28;20110;-67
2022/02/23 07:01:19;;;;;;;14.55;7.18;;;;;;;-146.41;100.00;57768.22;4980623;28;20228;-69
2022/02/23 07:03:48;;;;;;;29.63;8.50;;;1.80;99.90;;;-146.41;100.00;57768.22;4978005;28;20503;-68
2022/02/23 07:06:17;;;;;;;24.17;9.07;;;1.90;99.90;;;-146.41;100.00;57768.22;4980729;28;20089;-68
2022/02/23 07:08:49;;;;;;;27.40;10.15;;;1.90;99.90;;;-146.41;100.00;57768.22;4981510;28;20152;-68
2022/02/23 07:11:18;;;;;;;37.35;12.68;;;2.00;99.90;;;-146.41;100.00;57768.22;4959859;28;20136;-68
2022/02/23 07:13:45;;;;;;;15.27;8.18;;;2.00;99.90;;;-146.41;100.00;57768.22;4982584;28;20074;-68
2022/02/23 07:16:15;;;;;;;36.55;13.98;;;2.10;99.90;;;-146.41;100.00;57768.22;4981541;28;20141;-69
2022/02/23 07:18:42;;;;;;;124.05;18.75;;;2.10;99.90;;;-146.41;100.00;57768.22;4980174;28;20089;-68
2022/02/23 07:21:09;;;;;;;43.75;13.00;;;1.90;99.90;;;-146.41;100.00;57768.22;4975240;28;20513;-69
2022/02/23 07:23:37;;;;;;;48.30;15.50;;;2.00;99.90;;;-146.41;100.00;57768.22;4982408;28;20141;-68
2022/02/23 07:26:04;;;;;;;25.77;12.00;;;2.10;99.90;;;-146.41;100.00;57768.22;4981291;28;20104;-68
2022/02/23 07:28:31;;;;;;;36.67;13.77;;;2.10;99.90;;;-146.41;100.00;57768.22;4984155;28;20056;-68
2022/02/23 07:31:17;;;;;;;22.88;10.00;;;2.10;99.90;;;-146.41;100.00;57768.22;4967594;28;20059;-68
2022/02/23 07:33:46;;;;;;;17.90;8.65;;;2.10;99.90;;;-146.41;100.00;57768.22;4986298;28;20057;-68
2022/02/23 07:36:15;;;;;;;23.63;10.63;;;2.20;99.90;;;-146.41;100.00;57768.22;4979857;28;20101;-68
2022/02/23 07:38:45;;;;;;;14.43;7.90;;;2.20;99.90;;;-146.41;100.00;57768.22;4983019;28;20124;-68
2022/02/23 07:41:19;;;;;;;17.80;9.15;;;2.30;99.90;;;-146.41;100.00;57768.22;4982778;28;20112;-68
2022/02/23 07:44:06;;;;;;;27.58;12.55;;;2.40;99.90;;;-146.41;100.00;57768.22;4981082;28;20054;-68
2022/02/23 07:46:33;;;;;;;22.30;13.20;;;2.40;99.90;;;-146.41;100.00;57768.22;4981926;28;20422;-68
2022/02/23 07:49:03;;;;;;;18.30;11.25;;;2.60;99.90;;;-146.41;100.00;57768.22;4980683;28;20051;-69
2022/02/23 07:51:30;;;;;;;26.23;15.82;;;2.60;99.90;;;-146.41;100.00;57768.22;4979197;28;20146;-69
2022/02/23 07:53:58;;;;;;;24.33;13.18;;;2.70;99.90;;;-146.41;100.00;57768.22;4980980;28;20110;-68
2022/02/23 07:56:26;;;;;;;25.42;15.70;;;2.80;99.90;;;-146.41;100.00;57768.22;4977986;28;20049;-68
2022/02/23 07:58:53;;;;;;;33.63;21.05;;;2.80;99.90;;;-146.41;100.00;57768.22;4971417;28;20078;-68
2022/02/23 08:01:34;;;;;;;30.10;19.58;;;2.90;99.90;;;-146.41;100.00;57768.22;4976284;28;20165;-68
2022/02/23 08:04:03;;;;;;;32.58;21.77;;;3.00;99.90;;;-146.41;100.00;57768.22;4979770;28;20353;-68
2022/02/23 08:06:31;;;;;;;41.67;26.83;;;3.10;99.90;;;-146.41;100.00;57768.22;4963530;28;20078;-68
2022/02/23 08:08:59;;;;;;;34.60;20.42;;;3.60;99.90;;;-146.41;100.00;57768.22;4964245;28;20134;-68
2022/02/23 08:11:29;;;;;;;14.25;9.32;;;4.30;99.90;;;-146.41;100.00;57768.22;4974587;28;20043;-68
2022/02/23 08:13:59;;;;;;;12.95;6.32;;;4.90;99.90;;;-146.41;100.00;57768.22;4978295;28;20078;-68
2022/02/23 08:19:32;;;;;;;10.68;6.80;;;6.20;99.90;;;-146.41;100.00;57768.22;4983095;28;20134;-69
2022/02/23 08:22:05;;;;;;;10.13;5.80;;;7.00;99.90;;;-146.41;100.00;57768.22;4978328;28;20069;-69
2022/02/23 08:24:35;;;;;;;14.80;6.32;;;7.70;99.90;;;-146.41;100.00;57768.22;4984318;28;20133;-66
2022/02/23 08:27:07;;;;;;;9.45;6.22;;;8.20;99.90;;;-146.41;100.00;57768.22;4969220;28;20054;-69
2022/02/23 08:29:35;;;;;;;9.73;5.72;;;8.70;99.90;;;-146.41;100.00;57768.22;4949498;28;20050;-67
2022/02/23 08:32:05;;;;;;;9.05;5.03;;;9.10;99.90;;;-146.41;100.00;57768.22;4980990;28;20468;-69
2022/02/23 08:34:32;;;;;;;9.07;4.32;;;9.30;99.90;;;-146.41;100.00;57768.22;4964154;28;20074;-66
2022/02/23 08:36:59;;;;;;;10.60;4.20;;;9.50;99.90;;;-146.41;100.00;57768.22;4979374;28;20141;-66
2022/02/23 08:39:26;;;;;;;11.43;5.55;;;10.00;99.90;;;-146.41;100.00;57768.22;4960734;28;20069;-66
2022/02/23 08:41:56;;;;;;;14.32;8.13;;;10.50;99.90;;;-146.41;100.00;57768.22;4978639;28;20073;-67
2022/02/23 08:44:23;;;;;;;14.68;6.97;;;10.50;99.90;;;-146.41;100.00;57768.22;4976564;28;20133;-66
2022/02/23 08:46:50;;;;;;;9.90;5.60;;;10.40;99.90;;;-146.41;100.00;57768.22;4978310;28;20093;-66
2022/02/23 08:49:18;;;;;;;9.32;2.65;;;10.40;99.90;;;-146.41;100.00;57768.22;4973845;28;20149;-66
2022/02/23 08:51:46;;;;;;;12.82;2.78;;;10.10;99.90;;;-146.41;100.00;57768.22;4960680;28;20138;-69
2022/02/23 08:54:16;;;;;;;9.98;2.70;;;9.80;99.90;;;-146.41;100.00;57768.22;4978760;28;20109;-68
2022/02/23 08:56:44;;;;;;;9.77;2.58;;;9.40;99.90;;;-146.41;100.00;57768.22;4976752;28;20066;-69
2022/02/23 08:59:11;;;;;;;9.88;2.92;;;9.30;99.90;;;-146.41;100.00;57768.22;4975506;28;20141;-68
2022/02/23 09:01:39;;;;;;;8.25;2.53;;;9.20;99.90;;;-146.41;100.00;57768.22;4973295;28;20054;-68
2022/02/23 09:04:06;;;;;;;11.38;3.35;;;8.90;99.90;;;-146.41;100.00;57768.22;4980457;28;20547;-68
2022/02/23 09:06:36;;;;;;;11.98;3.03;;;8.80;99.90;;;-146.41;100.00;57768.22;4974347;28;20143;-68
2022/02/23 09:09:07;;;;;;;11.82;2.40;;;8.50;99.90;;;-146.41;100.00;57768.22;4980149;28;20142;-68
2022/02/23 09:11:34;;;;;;;14.00;3.33;;;8.10;99.90;;;-146.41;100.00;57768.22;4979051;28;20752;-68
2022/02/23 09:14:03;;;;;;;11.10;2.25;;;7.90;99.90;;;-146.41;100.00;57768.22;4983798;28;20137;-68
2022/02/23 09:16:33;;;;;;;10.60;3.03;;;7.50;99.90;;;-146.41;100.00;57768.22;4974367;28;20050;-68
2022/02/23 09:19:04;;;;;;;;;;;7.40;99.90;;;-146.41;100.00;57768.22;4978373;28;20047;-68
2022/02/23 09:21:31;;;;;;;11.90;2.97;;;7.30;99.90;;;-146.41;100.00;57768.22;4966216;28;19964;-67
2022/02/23 09:24:01;;;;;;;13.90;3.78;;;7.30;99.90;;;-146.41;100.00;57768.22;4977960;28;20118;-68
2022/02/23 09:26:29;;;;;;;13.73;2.80;;;7.30;99.90;;;-146.41;100.00;57768.22;4964293;28;20133;-68
2022/02/23 09:28:57;;;;;;;13.05;3.10;;;7.40;99.90;;;-146.41;100.00;57768.22;4977462;28;20120;-68
2022/02/23 09:31:25;;;;;;;12.18;2.60;;;7.40;99.90;;;-146.41;100.00;57768.22;4977368;28;20137;-67
2022/02/23 09:33:54;;;;;;;11.40;2.53;;;7.40;99.90;;;-146.41;100.00;57768.22;4976385;28;20078;-68
2022/02/23 09:36:22;;;;;;;18.67;3.55;;;7.40;99.90;;;-146.41;100.00;57768.22;4977005;28;20500;-68
2022/02/23 09:38:50;;;;;;;13.55;2.63;;;7.40;99.90;;;-146.41;100.00;57768.22;4967679;28;20105;-68
2022/02/23 09:41:21;;;;;;;11.57;3.15;;;7.40;99.90;;;-146.41;100.00;57768.22;4976613;28;20089;-68
2022/02/23 09:43:52;;;;;;;15.93;3.10;;;7.40;99.90;;;-146.41;100.00;57768.22;4977618;28;20046;-68
2022/02/23 09:46:24;;;;;;;16.25;3.85;;;7.40;99.90;;;-146.41;100.00;57768.22;4975660;28;20499;-68
2022/02/23 09:48:53;;;;;;;15.27;2.60;;;7.50;99.90;;;-146.41;100.00;57768.22;4964633;28;20239;-68
2022/02/23 09:51:22;;;;;;;10.95;2.65;;;7.50;99.90;;;-146.41;100.00;57768.22;4972568;28;20058;-68
2022/02/23 09:53:55;;;;;;;13.25;2.65;;;7.60;99.90;;;-146.41;100.00;57768.22;4980201;28;20138;-68
2022/02/23 09:56:25;;;;;;;14.00;2.08;;;7.60;99.90;;;-146.41;100.00;57768.22;4974545;28;20049;-68
2022/02/23 09:58:55;;;;;;;12.35;2.65;;;7.70;99.90;;;-146.41;100.00;57768.22;4963721;28;20485;-68
2022/02/23 10:01:23;;;;;;;11.25;2.65;;;7.80;99.90;;;-146.41;100.00;57768.22;4981964;28;20516;-67
2022/02/23 10:03:53;;;;;;;12.05;2.28;;;7.90;99.90;;;-146.41;100.00;57768.22;4963887;28;20062;-67
2022/02/23 10:06:27;;;;;;;10.40;2.45;;;8.00;99.90;;;-146.41;100.00;57768.22;4972862;28;20082;-68
2022/02/23 10:09:12;;;;;;;10.52;2.60;;;8.10;99.90;;;-146.41;100.00;57768.22;4961275;28;20663;-68
2022/02/23 10:11:42;;;;;;;13.18;2.40;;;8.20;99.90;;;-146.41;100.00;57768.22;4978899;28;20047;-68